Time;durP1;ratioP1;P1;durP2;ratioP2;P2;SDS_P1;SDS_P2;PMS_P1;PMS_P2;Temp;Humidity;BMP_temperature;BMP_pressure;BME280_temperature;BME280_humidity;BME280_pressure;Samples;Min_cycle;Max_cycle;Signal;HPM_P1;HPM_P2
2023/01/22 00:02:22;;;;;;;6.03;5.37;;;0.90;99.90;;;;;;5027363;28;20449;-77
2023/01/22 00:04:47;;;;;;;7.10;6.03;;;1.00;99.90;;;;;;5029310;28;20455;-76
2023/01/22 00:07:14;;;;;;;8.37;6.23;;;0.90;99.90;;;;;;5029290;28;20501;-76
2023/01/22 00:09:40;;;;;;;7.57;6.15;;;0.80;99.90;;;;;;5029619;28;20474;-77
2023/01/22 00:12:07;;;;;;;7.80;5.82;;;0.80;99.90;;;;;;5030326;28;20862;-77
2023/01/22 00:14:32;;;;;;;8.35;6.63;;;0.80;99.90;;;;;;5030409;28;20415;-78
2023/01/22 00:16:58;;;;;;;7.85;6.38;;;0.80;99.90;;;;;;5028458;28;20763;-77
2023/01/22 00:19:24;;;;;;;9.10;6.13;;;0.90;99.90;;;;;;5030133;28;20565;-77
2023/01/22 00:21:49;;;;;;;6.70;5.80;;;2.10;99.90;;;;;;5029178;28;20422;-77
2023/01/22 00:24:15;;;;;;;8.03;6.23;;;0.90;99.90;;;;;;5023913;28;20427;-77
2023/01/22 00:26:40;;;;;;;10.50;7.13;;;0.90;99.90;;;;;;5027666;28;20449;-76
2023/01/22 00:29:06;;;;;;;7.57;6.30;;;0.80;99.90;;;;;;5027766;28;20423;-77
2023/01/22 00:31:32;;;;;;;11.73;7.30;;;1.60;99.90;;;;;;5027847;28;20506;-78
2023/01/22 00:33:58;;;;;;;8.57;6.00;;;1.50;99.90;;;;;;5028999;28;20426;-77
2023/01/22 00:36:23;;;;;;;9.15;7.20;;;0.90;99.90;;;;;;5023138;28;20451;-76
2023/01/22 00:38:49;;;;;;;9.67;6.00;;;0.80;99.90;;;;;;5024477;28;20478;-77
2023/01/22 00:41:17;;;;;;;7.38;6.28;;;1.10;99.90;;;;;;5027502;28;20435;-77
2023/01/22 00:43:43;;;;;;;8.40;5.95;;;1.10;99.90;;;;;;5028214;28;20434;-77
2023/01/22 00:46:12;;;;;;;7.80;6.68;;;0.90;99.90;;;;;;5027205;28;20419;-77
2023/01/22 00:48:38;;;;;;;9.63;6.97;;;1.10;99.90;;;;;;5042705;28;20792;-76
2023/01/22 00:51:04;;;;;;;8.40;6.35;;;1.10;99.90;;;;;;5037897;28;20438;-79
2023/01/22 00:53:30;;;;;;;8.30;6.35;;;1.00;99.90;;;;;;5021864;28;20470;-77
2023/01/22 00:55:58;;;;;;;7.55;6.10;;;0.90;99.90;;;;;;5025782;28;20474;-76
2023/01/22 00:58:24;;;;;;;8.18;6.00;;;0.90;99.90;;;;;;5027586;28;20441;-77
2023/01/22 01:00:50;;;;;;;8.68;7.47;;;2.50;99.90;;;;;;5025949;28;20633;-76
2023/01/22 01:03:31;;;;;;;9.85;6.63;;;0.80;99.90;;;;;;5027275;28;20486;-77
2023/01/22 01:06:06;;;;;;;11.77;8.20;;;1.50;99.90;;;;;;5019551;28;21006;-76
2023/01/22 01:08:34;;;;;;;9.07;6.60;;;1.00;99.90;;;;;;5026480;28;20499;-77
2023/01/22 01:11:03;;;;;;;12.38;7.30;;;0.80;99.90;;;;;;5026233;28;20427;-77
2023/01/22 01:13:31;;;;;;;9.70;7.68;;;0.60;99.90;;;;;;5014386;28;20553;-76
2023/01/22 01:16:03;;;;;;;11.13;7.93;;;0.50;99.90;;;;;;5024876;28;21237;-77
2023/01/22 01:18:30;;;;;;;11.70;7.18;;;2.20;99.90;;;;;;5016618;28;20468;-77
2023/01/22 01:20:56;;;;;;;11.07;7.32;;;0.40;99.90;;;;;;5027058;28;20448;-77
2023/01/22 01:23:23;;;;;;;11.52;7.57;;;0.20;99.90;;;;;;5025176;28;20925;-76
2023/01/22 01:25:49;;;;;;;11.40;7.65;;;0.50;99.90;;;;;;5026120;28;20908;-77
2023/01/22 01:28:15;;;;;;;10.00;8.13;;;1.70;99.90;;;;;;5027921;28;20502;-77
2023/01/22 01:30:41;;;;;;;12.90;8.13;;;0.40;99.90;;;;;;5027162;28;20438;-76
2023/01/22 01:33:07;;;;;;;9.95;7.95;;;2.00;99.90;;;;;;5027781;28;20419;-76
2023/01/22 01:35:33;;;;;;;12.63;8.03;;;0.00;99.90;;;;;;5027865;28;20434;-77
2023/01/22 01:37:58;;;;;;;12.63;8.50;;;1.60;99.90;;;;;;5027156;28;20426;-77
2023/01/22 01:40:24;;;;;;;9.53;7.77;;;0.10;99.90;;;;;;5027888;28;20514;-77
2023/01/22 01:42:50;;;;;;;11.35;8.57;;;0.10;99.90;;;;;;5027715;28;20508;-77
2023/01/22 01:45:30;;;;;;;13.85;8.82;;;-0.20;99.90;;;;;;5018990;28;20779;-78
2023/01/22 01:48:20;;;;;;;12.73;8.52;;;-0.20;99.90;;;;;;5026925;28;20441;-77
2023/01/22 01:50:52;;;;;;;13.75;8.85;;;0.00;99.90;;;;;;5027625;28;20483;-77
2023/01/22 01:53:18;;;;;;;10.75;8.90;;;0.00;99.90;;;;;;5027065;28;20830;-77
2023/01/22 01:55:44;;;;;;;12.18;9.10;;;-0.10;99.90;;;;;;5027277;28;20431;-78
2023/01/22 01:58:20;;;;;;;10.80;8.23;;;0.00;99.90;;;;;;5043126;28;20503;-77
2023/01/22 02:03:21;;;;;;;11.57;8.77;;;0.10;99.90;;;;;;5021119;28;20450;-76
2023/01/22 02:05:47;;;;;;;13.27;9.35;;;0.10;99.90;;;;;;5007948;28;20929;-77
2023/01/22 02:08:13;;;;;;;12.10;8.73;;;1.70;99.90;;;;;;5024084;28;20427;-77
2023/01/22 02:10:39;;;;;;;11.63;9.23;;;2.10;99.90;;;;;;5027691;28;20423;-77
2023/01/22 02:13:19;;;;;;;14.68;9.07;;;1.60;99.90;;;;;;5005299;28;20427;-78
2023/01/22 02:15:45;;;;;;;15.27;9.25;;;0.60;99.90;;;;;;5023502;28;20465;-78
2023/01/22 02:18:10;;;;;;;13.88;9.45;;;0.70;99.90;;;;;;5020367;28;20854;-77
2023/01/22 02:20:38;;;;;;;11.68;8.35;;;0.50;99.90;;;;;;5022284;28;20432;-78
2023/01/22 02:23:04;;;;;;;13.02;9.80;;;1.00;99.90;;;;;;5024041;28;20434;-79
2023/01/22 02:25:30;;;;;;;15.43;9.87;;;0.10;99.90;;;;;;5025334;28;20431;-76
2023/01/22 02:27:55;;;;;;;14.00;9.82;;;0.40;99.90;;;;;;5013525;28;20476;-79
2023/01/22 02:30:21;;;;;;;12.45;9.25;;;0.30;99.90;;;;;;5023711;28;20427;-78
2023/01/22 02:32:47;;;;;;;12.77;10.20;;;0.60;99.90;;;;;;5023112;28;20426;-78
2023/01/22 02:35:13;;;;;;;16.97;9.90;;;0.20;99.90;;;;;;5026281;28;20587;-77
2023/01/22 02:37:38;;;;;;;14.90;9.83;;;0.60;99.90;;;;;;5025352;28;20509;-78
2023/01/22 02:40:04;;;;;;;12.10;9.23;;;0.40;99.90;;;;;;5007733;28;20592;-79
2023/01/22 02:42:30;;;;;;;15.43;10.95;;;0.60;99.90;;;;;;5003859;28;20844;-77
2023/01/22 02:44:56;;;;;;;15.57;9.20;;;1.40;99.90;;;;;;5029110;28;20519;-77
2023/01/22 02:47:21;;;;;;;15.67;9.93;;;0.80;99.90;;;;;;5005503;28;20430;-77
2023/01/22 02:49:47;;;;;;;14.10;10.17;;;1.00;99.90;;;;;;5016446;28;20458;-78
2023/01/22 02:52:13;;;;;;;16.70;10.40;;;0.30;99.90;;;;;;5018537;28;20426;-77
2023/01/22 02:54:38;;;;;;;14.57;10.07;;;0.70;99.90;;;;;;5006338;28;20423;-77
2023/01/22 02:57:04;;;;;;;14.20;10.65;;;0.50;99.90;;;;;;5023848;28;20431;-77
2023/01/22 02:59:30;;;;;;;15.70;9.88;;;0.40;99.90;;;;;;5025335;28;20422;-77
2023/01/22 03:01:56;;;;;;;14.00;10.00;;;3.00;99.90;;;;;;5021245;28;20438;-77
2023/01/22 03:04:22;;;;;;;16.17;10.88;;;0.40;99.90;;;;;;5025002;28;20419;-77
2023/01/22 03:06:47;;;;;;;15.35;11.05;;;0.50;99.90;;;;;;5006409;28;20473;-78
2023/01/22 03:09:15;;;;;;;16.50;11.43;;;0.80;99.90;;;;;;5025288;28;20418;-77
2023/01/22 03:11:42;;;;;;;12.48;9.98;;;0.50;99.90;;;;;;5022070;28;20933;-77
2023/01/22 03:22:21;;;;;;;14.10;10.90;;;1.10;99.90;;;;;;5025516;28;20476;-77
2023/01/22 03:24:51;;;;;;;15.95;9.80;;;-0.80;99.90;;;;;;5027457;28;20430;-77
2023/01/22 03:27:22;;;;;;;12.65;9.63;;;0.70;99.90;;;;;;5026404;28;20467;-78
2023/01/22 03:29:48;;;;;;;14.53;9.80;;;2.70;99.90;;;;;;5025241;28;20487;-78
2023/01/22 03:32:14;;;;;;;14.20;9.43;;;2.20;99.90;;;;;;5013343;28;20780;-77
2023/01/22 03:34:40;;;;;;;14.87;9.10;;;0.50;99.90;;;;;;5026118;28;20466;-77
2023/01/22 03:37:07;;;;;;;12.43;8.45;;;0.60;99.90;;;;;;5027228;28;20433;-77
2023/01/22 03:39:32;;;;;;;12.18;7.68;;;0.60;99.90;;;;;;5012214;28;20426;-77
2023/01/22 03:41:58;;;;;;;11.20;8.18;;;2.00;99.90;;;;;;5026816;28;20422;-77
2023/01/22 03:44:24;;;;;;;11.20;7.82;;;0.90;99.90;;;;;;5026531;28;20426;-77
2023/01/22 03:46:50;;;;;;;10.88;7.85;;;2.30;99.90;;;;;;5026345;28;20522;-77
2023/01/22 03:49:16;;;;;;;11.82;7.78;;;1.00;99.90;;;;;;5029255;28;20534;-78
2023/01/22 03:51:42;;;;;;;10.27;7.23;;;0.90;99.90;;;;;;4992549;28;20812;-78
2023/01/22 03:54:13;;;;;;;11.77;8.85;;;0.70;99.90;;;;;;5027345;28;20472;-78
2023/01/22 03:56:39;;;;;;;10.68;7.15;;;2.00;99.90;;;;;;5026574;28;20465;-77
2023/01/22 03:59:04;;;;;;;12.00;8.30;;;0.80;99.90;;;;;;5025636;28;20469;-79
2023/01/22 04:01:30;;;;;;;10.00;7.97;;;1.00;99.90;;;;;;5026864;28;20423;-77
2023/01/22 04:03:56;;;;;;;11.43;6.93;;;1.00;99.90;;;;;;5010419;28;20793;-77
2023/01/22 04:06:22;;;;;;;11.00;7.57;;;0.60;99.90;;;;;;5024457;28;20437;-78
2023/01/22 04:08:50;;;;;;;8.98;6.72;;;0.70;99.90;;;;;;5026114;28;20426;-77
2023/01/22 04:11:17;;;;;;;8.07;6.30;;;0.70;99.90;;;;;;5027838;28;20442;-78
2023/01/22 04:13:43;;;;;;;10.43;6.97;;;1.00;99.90;;;;;;5011376;28;20442;-77
2023/01/22 04:16:11;;;;;;;12.00;6.28;;;1.00;99.90;;;;;;5007988;28;20911;-77
2023/01/22 04:18:37;;;;;;;6.97;5.97;;;1.00;99.90;;;;;;5027102;28;20430;-77
2023/01/22 04:21:03;;;;;;;9.90;5.97;;;0.90;99.90;;;;;;5033641;28;20637;-77
2023/01/22 04:23:28;;;;;;;8.77;5.65;;;1.00;99.90;;;;;;5020634;28;20430;-75
2023/01/22 04:25:54;;;;;;;11.35;5.78;;;0.80;99.90;;;;;;5025948;28;20443;-77
2023/01/22 04:28:20;;;;;;;6.72;5.03;;;0.80;99.90;;;;;;5028792;28;20423;-77
2023/01/22 04:30:48;;;;;;;9.23;5.90;;;0.80;99.90;;;;;;5030780;28;20912;-77
2023/01/22 04:33:13;;;;;;;8.15;5.38;;;0.90;99.90;;;;;;5023282;28;20421;-77
2023/01/22 04:35:39;;;;;;;6.55;4.38;;;2.10;99.90;;;;;;5031965;28;20426;-76
2023/01/22 04:38:06;;;;;;;8.65;4.88;;;0.80;99.90;;;;;;5024660;28;21881;-77
2023/01/22 04:40:32;;;;;;;8.02;4.65;;;1.00;99.90;;;;;;5033317;28;20455;-77
2023/01/22 04:43:02;;;;;;;9.50;4.90;;;2.10;99.90;;;;;;5010629;28;20431;-77
2023/01/22 04:45:28;;;;;;;8.27;4.80;;;2.60;99.90;;;;;;5027539;28;20471;-77
2023/01/22 04:47:54;;;;;;;7.50;4.40;;;1.00;99.90;;;;;;5026299;28;20482;-75
2023/01/22 04:50:22;;;;;;;7.68;5.03;;;1.10;99.90;;;;;;5026516;28;20822;-77
2023/01/22 04:52:50;;;;;;;7.18;4.53;;;2.20;99.90;;;;;;5008693;28;20496;-77
2023/01/22 04:55:16;;;;;;;8.25;4.93;;;1.00;99.90;;;;;;5027478;28;20471;-77
2023/01/22 04:57:41;;;;;;;8.53;5.23;;;0.90;99.90;;;;;;5009784;28;20498;-78
2023/01/22 05:00:09;;;;;;;7.32;4.55;;;2.40;99.90;;;;;;5026085;28;20502;-77
2023/01/22 05:02:34;;;;;;;8.75;4.80;;;1.00;99.90;;;;;;5007998;28;20422;-76
2023/01/22 05:05:00;;;;;;;6.13;4.93;;;0.90;99.90;;;;;;5009394;28;20820;-77
2023/01/22 05:07:26;;;;;;;6.93;4.73;;;1.00;99.90;;;;;;5025217;28;21076;-80
2023/01/22 05:09:51;;;;;;;8.32;4.90;;;0.90;99.90;;;;;;5024566;28;20435;-77
2023/01/22 05:12:18;;;;;;;8.60;4.63;;;1.90;99.90;;;;;;5025463;28;20423;-76
2023/01/22 05:14:44;;;;;;;6.82;4.47;;;1.10;99.90;;;;;;5026253;28;20423;-75
2023/01/22 05:17:09;;;;;;;9.20;4.78;;;2.80;99.90;;;;;;5026096;28;20506;-75
2023/01/22 05:19:36;;;;;;;7.70;4.70;;;3.30;99.90;;;;;;5024620;28;20423;-77
2023/01/22 05:22:02;;;;;;;8.32;4.80;;;1.20;99.90;;;;;;4991304;28;20430;-75
2023/01/22 05:24:28;;;;;;;7.00;4.70;;;1.20;99.90;;;;;;5025143;28;20423;-76
2023/01/22 05:26:53;;;;;;;10.80;5.10;;;1.20;99.90;;;;;;5038667;28;20528;-77
2023/01/22 05:29:24;;;;;;;8.77;4.72;;;2.50;99.90;;;;;;5026058;28;20419;-77
2023/01/22 05:31:51;;;;;;;6.00;4.32;;;1.10;99.90;;;;;;5024772;28;20526;-76
2023/01/22 05:34:17;;;;;;;7.40;3.60;;;1.00;99.90;;;;;;5008310;28;20803;-77
2023/01/22 05:36:43;;;;;;;7.82;4.50;;;1.50;99.90;;;;;;5007134;28;20435;-77
2023/01/22 05:39:08;;;;;;;8.90;3.92;;;1.10;99.90;;;;;;5024869;28;20456;-75
2023/01/22 05:41:34;;;;;;;6.15;4.28;;;1.10;99.90;;;;;;5024562;28;20786;-77
2023/01/22 05:44:01;;;;;;;7.65;4.35;;;1.00;99.90;;;;;;5005664;28;20944;-76
2023/01/22 05:46:27;;;;;;;6.93;4.50;;;1.10;99.90;;;;;;5027165;28;20430;-77
2023/01/22 05:48:53;;;;;;;11.45;5.25;;;1.00;99.90;;;;;;5013541;28;20980;-77
2023/01/22 05:51:18;;;;;;;6.90;4.07;;;1.10;99.90;;;;;;5008448;28;20739;-76
2023/01/22 05:53:44;;;;;;;6.23;5.00;;;1.00;99.90;;;;;;5027631;28;20734;-77
2023/01/22 05:56:10;;;;;;;7.03;4.60;;;1.50;99.90;;;;;;5009730;28;21113;-75
2023/01/22 05:58:36;;;;;;;6.57;4.82;;;1.20;99.90;;;;;;5008891;28;20419;-75
2023/01/22 06:01:02;;;;;;;6.88;4.65;;;2.80;99.90;;;;;;5024560;28;20430;-75
2023/01/22 06:03:27;;;;;;;7.32;3.58;;;1.00;99.90;;;;;;5036602;28;20421;-76
2023/01/22 06:06:07;;;;;;;6.30;3.90;;;1.90;99.90;;;;;;5027712;28;20450;-76
2023/01/22 06:08:33;;;;;;;4.43;3.58;;;1.10;99.90;;;;;;5024971;28;20558;-75
2023/01/22 06:11:07;;;;;;;4.80;3.72;;;1.10;99.90;;;;;;5025859;28;20932;-75
2023/01/22 06:13:33;;;;;;;6.45;4.25;;;1.30;99.90;;;;;;5025782;28;20803;-77
2023/01/22 06:15:59;;;;;;;7.45;4.20;;;1.20;99.90;;;;;;5009235;28;20984;-76
2023/01/22 06:18:26;;;;;;;9.10;4.10;;;1.20;99.90;;;;;;5006946;28;20476;-75
2023/01/22 06:20:56;;;;;;;9.93;4.80;;;1.20;99.90;;;;;;5023290;28;21252;-77
2023/01/22 06:23:22;;;;;;;4.47;3.70;;;1.10;99.90;;;;;;5014323;28;20552;-78
2023/01/22 06:25:52;;;;;;;7.90;4.95;;;1.20;99.90;;;;;;5022386;28;20433;-74
2023/01/22 06:28:17;;;;;;;7.70;4.15;;;1.10;99.90;;;;;;5023929;28;20750;-73
2023/01/22 06:30:43;;;;;;;5.20;3.70;;;1.90;99.90;;;;;;5020927;28;20438;-73
2023/01/22 06:33:09;;;;;;;4.85;3.60;;;1.20;99.90;;;;;;5026606;28;20423;-74
2023/01/22 06:35:35;;;;;;;7.33;3.97;;;1.10;99.90;;;;;;5007580;28;21033;-75
2023/01/22 06:38:00;;;;;;;6.78;3.60;;;1.20;99.90;;;;;;5007700;28;21026;-74
2023/01/22 06:40:26;;;;;;;7.97;3.67;;;1.80;99.90;;;;;;5021145;28;20427;-73
2023/01/22 06:42:51;;;;;;;7.15;3.50;;;1.00;99.90;;;;;;5024322;28;21047;-72
2023/01/22 06:45:17;;;;;;;5.65;3.35;;;1.30;99.90;;;;;;5026796;28;20549;-72
2023/01/22 06:47:44;;;;;;;6.15;3.10;;;1.80;99.90;;;;;;5025725;28;20415;-73
2023/01/22 06:50:10;;;;;;;5.40;3.08;;;2.20;99.90;;;;;;5024542;28;20434;-72
2023/01/22 06:52:36;;;;;;;3.38;3.08;;;1.20;99.90;;;;;;5027566;28;20419;-73
2023/01/22 06:55:02;;;;;;;5.53;2.85;;;1.10;99.90;;;;;;5030343;28;20756;-72
2023/01/22 06:57:27;;;;;;;6.07;3.38;;;1.30;99.90;;;;;;5029258;28;20422;-74
2023/01/22 06:59:53;;;;;;;4.63;3.13;;;1.10;99.90;;;;;;5028199;28;20502;-73
2023/01/22 07:02:19;;;;;;;7.73;3.50;;;1.30;99.90;;;;;;5010719;28;20462;-73
2023/01/22 07:04:44;;;;;;;7.28;4.18;;;1.20;99.90;;;;;;5030146;28;20461;-73
2023/01/22 07:07:10;;;;;;;5.45;3.03;;;1.10;99.90;;;;;;5011036;28;20445;-73
2023/01/22 07:09:36;;;;;;;5.97;3.17;;;1.50;99.90;;;;;;5011005;28;20422;-73
2023/01/22 07:12:02;;;;;;;5.67;3.23;;;1.30;99.90;;;;;;5028950;28;20430;-72
2023/01/22 07:14:29;;;;;;;6.47;3.22;;;1.10;99.90;;;;;;5008998;28;20452;-72
2023/01/22 07:16:55;;;;;;;5.90;3.20;;;1.30;99.90;;;;;;5013406;28;20992;-72
2023/01/22 07:19:22;;;;;;;8.13;3.47;;;1.00;99.90;;;;;;5011551;28;20457;-72
2023/01/22 07:21:47;;;;;;;5.90;3.53;;;1.10;99.90;;;;;;5027724;28;20438;-73
2023/01/22 07:24:13;;;;;;;5.15;2.90;;;1.20;99.90;;;;;;5026826;28;20428;-72
2023/01/22 07:26:39;;;;;;;6.82;3.85;;;1.10;99.90;;;;;;5025484;28;20893;-72
2023/01/22 07:29:05;;;;;;;6.20;3.20;;;1.00;99.90;;;;;;5008295;28;20459;-74
2023/01/22 07:31:30;;;;;;;6.65;3.95;;;1.30;99.90;;;;;;5025695;28;20459;-73
2023/01/22 07:33:56;;;;;;;5.90;3.42;;;2.80;99.90;;;;;;4993637;28;20830;-72
2023/01/22 07:36:22;;;;;;;5.90;3.30;;;1.30;99.90;;;;;;5011182;28;20466;-73
2023/01/22 07:38:48;;;;;;;7.07;3.57;;;1.10;99.90;;;;;;5028169;28;20506;-73
2023/01/22 07:41:13;;;;;;;5.93;3.13;;;1.20;99.90;;;;;;5011244;28;20562;-73
2023/01/22 07:43:39;;;;;;;6.97;3.38;;;1.00;99.90;;;;;;5005625;28;20470;-74
2023/01/22 07:46:06;;;;;;;7.03;3.67;;;1.10;99.90;;;;;;5011911;28;20422;-74
2023/01/22 07:48:32;;;;;;;9.52;3.30;;;1.50;99.90;;;;;;4995220;28;20446;-74
2023/01/22 07:51:02;;;;;;;6.80;3.77;;;1.00;99.90;;;;;;5030160;28;20524;-73
2023/01/22 07:53:28;;;;;;;6.63;4.18;;;1.00;99.90;;;;;;5025629;28;20464;-72
2023/01/22 07:55:54;;;;;;;5.40;3.20;;;1.20;99.90;;;;;;5014615;28;20444;-72
2023/01/22 07:58:20;;;;;;;7.20;3.92;;;1.00;99.90;;;;;;5002444;28;20431;-74
2023/01/22 08:00:45;;;;;;;6.63;4.53;;;1.20;99.90;;;;;;5009249;28;20944;-72
2023/01/22 08:03:13;;;;;;;6.70;3.73;;;1.20;99.90;;;;;;5024987;28;20431;-73
2023/01/22 08:05:39;;;;;;;4.18;3.20;;;0.90;99.90;;;;;;4991064;28;20432;-74
2023/01/22 08:08:11;;;;;;;5.88;3.85;;;1.20;99.90;;;;;;5016506;28;20900;-73
2023/01/22 08:10:37;;;;;;;7.88;3.92;;;1.00;99.90;;;;;;5027984;28;21631;-72
2023/01/22 08:13:03;;;;;;;4.80;3.53;;;0.90;99.90;;;;;;5010189;28;20777;-74
2023/01/22 08:15:28;;;;;;;4.63;3.72;;;0.90;99.90;;;;;;5026827;28;20509;-73
2023/01/22 08:17:54;;;;;;;5.68;3.90;;;1.50;99.90;;;;;;5027442;28;20526;-73
2023/01/22 08:20:20;;;;;;;5.27;3.87;;;0.90;99.90;;;;;;5024009;28;20425;-73
2023/01/22 08:22:46;;;;;;;7.53;4.13;;;1.10;99.90;;;;;;5028712;28;20433;-73
2023/01/22 08:25:11;;;;;;;6.95;4.35;;;0.90;99.90;;;;;;5011181;28;20423;-74
2023/01/22 08:27:37;;;;;;;9.23;4.38;;;0.90;99.90;;;;;;5028678;28;20407;-72
2023/01/22 08:30:04;;;;;;;8.27;3.65;;;0.80;99.90;;;;;;5028150;28;20502;-74
2023/01/22 08:32:30;;;;;;;6.95;4.03;;;1.10;99.90;;;;;;5018839;28;20877;-71
2023/01/22 08:34:56;;;;;;;6.10;4.43;;;1.10;99.90;;;;;;5026354;28;20490;-72
2023/01/22 08:37:22;;;;;;;9.30;4.90;;;1.10;99.90;;;;;;5007660;28;20443;-72
2023/01/22 08:39:48;;;;;;;8.05;3.75;;;1.50;99.90;;;;;;5027397;28;20449;-72
2023/01/22 08:42:14;;;;;;;6.32;4.43;;;0.90;99.90;;;;;;5028116;28;20438;-74
2023/01/22 08:44:40;;;;;;;8.07;5.07;;;1.00;99.90;;;;;;5026172;28;20429;-72
2023/01/22 08:47:05;;;;;;;8.57;4.47;;;1.00;99.90;;;;;;5009084;28;20908;-73
2023/01/22 08:49:31;;;;;;;7.68;4.60;;;0.90;99.90;;;;;;5026476;28;20426;-73
2023/01/22 08:51:57;;;;;;;6.10;4.15;;;1.10;99.90;;;;;;5009451;28;20446;-73
2023/01/22 08:54:22;;;;;;;7.10;4.50;;;0.90;99.90;;;;;;5008512;28;20526;-72
2023/01/22 08:56:48;;;;;;;5.30;4.10;;;1.00;99.90;;;;;;5010060;28;20465;-72
2023/01/22 08:59:15;;;;;;;5.50;4.40;;;0.80;99.90;;;;;;5007690;28;20447;-71
2023/01/22 09:01:40;;;;;;;7.88;4.78;;;0.80;99.90;;;;;;5027485;28;20426;-74
2023/01/22 09:04:07;;;;;;;5.60;4.38;;;0.80;99.90;;;;;;5026555;28;20419;-73
2023/01/22 09:06:34;;;;;;;6.05;4.63;;;0.70;99.90;;;;;;5026845;28;20414;-73
2023/01/22 09:09:00;;;;;;;7.60;4.47;;;0.80;99.90;;;;;;5025942;28;20411;-73
2023/01/22 09:11:28;;;;;;;5.75;4.30;;;0.90;99.90;;;;;;5026218;28;20486;-73
2023/01/22 09:13:57;;;;;;;9.43;4.95;;;1.00;99.90;;;;;;5007468;28;20472;-72
2023/01/22 09:16:24;;;;;;;5.20;4.07;;;1.00;99.90;;;;;;5010036;28;20434;-74
2023/01/22 09:18:50;;;;;;;4.50;3.85;;;0.80;99.90;;;;;;5024699;28;20572;-75
2023/01/22 09:21:16;;;;;;;8.23;4.55;;;1.00;99.90;;;;;;5026720;28;20506;-73
2023/01/22 09:23:41;;;;;;;9.60;4.88;;;0.90;99.90;;;;;;5008272;28;20426;-75
2023/01/22 09:26:07;;;;;;;9.88;5.32;;;1.00;99.90;;;;;;5026368;28;20422;-74
2023/01/22 09:28:33;;;;;;;5.88;4.57;;;0.90;99.90;;;;;;5007466;28;20506;-73
2023/01/22 09:30:58;;;;;;;6.88;4.47;;;1.00;99.90;;;;;;5008655;28;20521;-73
2023/01/22 09:33:24;;;;;;;7.97;4.17;;;1.10;99.90;;;;;;5024382;28;20434;-73
2023/01/22 09:35:50;;;;;;;7.00;4.07;;;0.70;99.90;;;;;;5025151;28;20449;-74
2023/01/22 09:38:17;;;;;;;5.40;4.22;;;0.90;99.90;;;;;;5025890;28;20419;-73
2023/01/22 09:41:00;;;;;;;8.82;4.75;;;0.70;99.90;;;;;;5008964;28;20518;-74
2023/01/22 09:44:06;;;;;;;6.57;4.15;;;0.90;99.90;;;;;;5008931;28;20499;-76
2023/01/22 09:46:40;;;;;;;6.50;4.80;;;0.70;99.90;;;;;;4970022;28;20477;-74
2023/01/22 09:49:15;;;;;;;5.05;4.30;;;0.60;99.90;;;;;;5024180;28;20613;-74
2023/01/22 09:51:50;;;;;;;5.40;4.68;;;0.80;99.90;;;;;;5008053;28;20542;-75
2023/01/22 09:54:16;;;;;;;11.40;4.40;;;0.80;99.90;;;;;;5025069;28;20488;-72
2023/01/22 09:56:44;;;;;;;5.93;4.50;;;2.10;99.90;;;;;;5027091;28;20464;-74
2023/01/22 09:59:20;;;;;;;6.45;4.50;;;0.70;99.90;;;;;;5006908;28;20477;-77
2023/01/22 10:01:51;;;;;;;7.03;4.90;;;2.50;99.90;;;;;;4987075;28;21034;-73
2023/01/22 10:04:38;;;;;;;6.73;4.97;;;0.50;99.90;;;;;;5025414;28;20585;-77
2023/01/22 10:07:11;;;;;;;7.15;4.57;;;0.70;99.90;;;;;;5004646;28;20478;-74
2023/01/22 10:09:39;;;;;;;8.05;5.15;;;1.00;99.90;;;;;;5025334;28;20469;-72
2023/01/22 10:12:12;;;;;;;7.68;5.00;;;1.00;99.90;;;;;;5018518;28;20901;-75
2023/01/22 10:14:38;;;;;;;8.23;4.90;;;1.00;99.90;;;;;;5025416;28;20707;-73
2023/01/22 10:17:16;;;;;;;7.13;4.63;;;0.70;99.90;;;;;;5008051;28;20505;-74
2023/01/22 10:19:45;;;;;;;6.35;4.40;;;0.90;99.90;;;;;;5008813;28;20488;-75
2023/01/22 10:22:25;;;;;;;7.93;5.38;;;1.10;99.90;;;;;;5013009;28;20433;-75
2023/01/22 10:24:52;;;;;;;5.78;4.63;;;2.10;99.90;;;;;;5037115;28;20483;-72
2023/01/22 10:27:31;;;;;;;8.35;5.40;;;1.00;99.90;;;;;;5028792;28;20461;-72
2023/01/22 10:30:21;;;;;;;11.07;6.25;;;0.90;99.90;;;;;;5010685;28;20469;-73
2023/01/22 10:33:05;;;;;;;9.85;7.35;;;1.10;99.90;;;;;;5012132;28;20816;-74
2023/01/22 10:35:51;;;;;;;10.07;5.75;;;1.20;99.90;;;;;;5027907;28;20460;-71
2023/01/22 10:38:24;;;;;;;7.13;4.50;;;1.10;99.90;;;;;;4994031;28;21036;-72
2023/01/22 10:40:59;;;;;;;6.90;5.17;;;1.30;99.90;;;;;;5029436;28;20450;-72
2023/01/22 10:43:36;;;;;;;21.90;15.73;;;1.30;99.90;;;;;;5012162;28;20500;-73
2023/01/22 10:46:06;;;;;;;7.50;5.78;;;1.40;99.90;;;;;;5026603;28;20464;-73
2023/01/22 10:48:32;;;;;;;9.17;5.43;;;1.30;99.90;;;;;;4993503;28;20507;-73
2023/01/22 10:51:14;;;;;;;10.35;8.05;;;1.60;99.90;;;;;;5027619;28;20434;-73
2023/01/22 10:53:52;;;;;;;9.35;6.25;;;1.40;99.90;;;;;;5012408;28;20458;-73
2023/01/22 10:56:34;;;;;;;8.47;5.50;;;1.60;99.90;;;;;;5010607;28;20997;-73
2023/01/22 10:59:04;;;;;;;7.67;6.07;;;1.70;99.90;;;;;;5012500;28;20519;-72
2023/01/22 11:01:38;;;;;;;9.43;6.85;;;1.90;99.90;;;;;;5029150;28;20457;-73
2023/01/22 11:04:12;;;;;;;10.10;7.18;;;1.60;99.90;;;;;;4992710;28;20467;-76
2023/01/22 11:06:49;;;;;;;11.32;6.47;;;1.80;99.90;;;;;;4997471;28;20427;-72
2023/01/22 11:09:49;;;;;;;9.20;6.20;;;1.80;99.90;;;;;;4995499;28;20558;-72
2023/01/22 11:12:29;;;;;;;9.15;5.60;;;3.50;99.90;;;;;;4968096;28;20458;-72
2023/01/22 11:15:11;;;;;;;9.63;5.32;;;1.90;99.90;;;;;;5011672;28;20499;-72
2023/01/22 11:17:41;;;;;;;7.88;5.32;;;2.00;99.90;;;;;;5010410;28;20426;-73
2023/01/22 11:20:47;;;;;;;7.55;5.22;;;1.90;99.90;;;;;;5010181;28;20427;-72
2023/01/22 11:23:23;;;;;;;8.15;5.40;;;2.10;99.90;;;;;;5009597;28;20442;-71
2023/01/22 11:26:12;;;;;;;6.57;4.13;;;2.20;99.90;;;;;;5027463;28;20426;-72
2023/01/22 11:29:04;;;;;;;7.07;5.18;;;2.10;99.90;;;;;;5028996;28;20423;-73
2023/01/22 11:31:38;;;;;;;7.82;5.90;;;2.20;99.90;;;;;;5028298;28;20929;-73
2023/01/22 11:34:31;;;;;;;7.55;6.00;;;2.30;99.90;;;;;;5009089;28;20489;-74
2023/01/22 11:37:09;;;;;;;7.30;5.22;;;2.10;99.90;;;;;;5024598;28;20601;-73
2023/01/22 11:40:10;;;;;;;10.75;8.40;;;2.30;99.90;;;;;;4996010;28;20431;-73
2023/01/22 11:43:05;;;;;;;5.55;4.70;;;2.40;99.90;;;;;;4946630;28;20489;-73
2023/01/22 11:46:03;;;;;;;5.82;4.70;;;2.20;99.90;;;;;;5010741;28;20431;-74
2023/01/22 11:48:43;;;;;;;12.77;7.97;;;2.10;99.90;;;;;;5028909;28;20522;-73
2023/01/22 11:51:17;;;;;;;13.03;9.87;;;2.30;99.90;;;;;;5025748;28;20525;-75
2023/01/22 11:54:10;;;;;;;7.68;6.20;;;2.30;99.90;;;;;;5026660;28;20827;-73
2023/01/22 11:57:05;;;;;;;5.90;5.30;;;2.30;99.90;;;;;;5021273;28;20542;-75
2023/01/22 11:59:43;;;;;;;6.63;5.80;;;2.40;99.90;;;;;;5014111;28;20775;-72
2023/01/22 12:02:17;;;;;;;6.40;5.17;;;2.30;99.90;;;;;;5010659;28;20783;-72
2023/01/22 12:05:10;;;;;;;7.32;5.97;;;2.30;99.90;;;;;;5026757;28;20442;-74
2023/01/22 12:07:38;;;;;;;6.43;4.97;;;2.40;99.90;;;;;;5007944;28;20577;-72
2023/01/22 12:10:07;;;;;;;6.87;5.97;;;2.20;99.90;;;;;;5027332;28;20435;-72
2023/01/22 12:12:44;;;;;;;7.22;6.00;;;2.30;99.90;;;;;;5006242;28;20470;-73
2023/01/22 12:15:15;;;;;;;8.90;5.60;;;2.50;99.90;;;;;;5009012;28;20459;-73
2023/01/22 12:18:06;;;;;;;7.53;5.03;;;2.50;99.90;;;;;;5023025;28;20426;-74
2023/01/22 12:20:46;;;;;;;6.55;5.00;;;2.60;99.90;;;;;;5027917;28;20403;-72
2023/01/22 12:23:23;;;;;;;6.32;5.38;;;2.60;99.90;;;;;;5009409;28;20765;-72
2023/01/22 12:26:13;;;;;;;6.30;4.70;;;2.50;99.90;;;;;;5009768;28;20474;-71
2023/01/22 12:28:45;;;;;;;8.65;6.53;;;2.20;99.90;;;;;;4985709;28;20514;-74
2023/01/22 12:31:16;;;;;;;8.40;6.07;;;2.50;99.90;;;;;;5026632;28;20478;-72
2023/01/22 12:33:43;;;;;;;6.73;5.13;;;2.50;99.90;;;;;;5008658;28;20514;-71
2023/01/22 12:36:12;;;;;;;9.93;5.80;;;2.50;99.90;;;;;;5015726;28;20519;-71
2023/01/22 12:38:53;;;;;;;8.03;6.10;;;2.60;99.90;;;;;;5026728;28;20469;-73
2023/01/22 12:41:50;;;;;;;6.03;5.00;;;2.60;99.90;;;;;;5008948;28;20428;-72
2023/01/22 12:44:43;;;;;;;10.25;5.43;;;2.60;99.90;;;;;;5026350;28;20431;-72
2023/01/22 12:47:19;;;;;;;7.30;4.85;;;2.40;99.90;;;;;;5004926;28;20441;-73
2023/01/22 12:49:51;;;;;;;7.55;4.75;;;2.50;99.90;;;;;;5009204;28;21136;-73
2023/01/22 12:52:26;;;;;;;16.75;11.18;;;2.60;99.90;;;;;;5022912;28;20444;-72
2023/01/22 12:54:55;;;;;;;27.85;16.45;;;2.70;99.90;;;;;;5024385;28;20518;-73
2023/01/22 12:57:26;;;;;;;6.45;4.60;;;2.60;99.90;;;;;;5018164;28;20424;-74
2023/01/22 12:59:54;;;;;;;5.97;4.22;;;2.50;99.90;;;;;;5008016;28;20408;-72
2023/01/22 13:02:36;;;;;;;7.88;5.15;;;2.70;99.90;;;;;;4990233;28;20749;-74
2023/01/22 13:05:10;;;;;;;8.90;6.15;;;2.80;99.90;;;;;;5007217;28;20541;-73
2023/01/22 13:07:38;;;;;;;5.57;4.50;;;3.20;99.90;;;;;;4989368;28;20442;-74
2023/01/22 13:10:23;;;;;;;8.47;5.97;;;2.70;99.90;;;;;;5009543;28;20463;-74
2023/01/22 13:12:54;;;;;;;5.60;4.97;;;5.50;99.90;;;;;;5009864;28;20905;-75
2023/01/22 13:15:28;;;;;;;10.10;4.70;;;2.60;99.90;;;;;;5027766;28;20540;-73
2023/01/22 13:18:22;;;;;;;7.45;4.90;;;2.60;99.90;;;;;;5009055;28;20450;-72